createdAt,value
2019-05-22T00:00:03.399Z,61.10
2019-05-22T00:01:03.426Z,59.80
2019-05-22T00:02:03.386Z,64.50
2019-05-22T00:03:03.782Z,63.60
2019-05-22T00:04:03.353Z,63.10
2019-05-22T00:05:03.342Z,66.30
2019-05-22T00:06:03.352Z,67.40
2019-05-22T00:07:03.333Z,67.30
2019-05-22T00:08:03.307Z,67.10
2019-05-22T00:09:03.294Z,69.80
2019-05-22T00:10:03.293Z,72.80
2019-05-22T00:11:03.341Z,70.00
2019-05-22T00:12:03.266Z,65.40
2019-05-22T00:13:03.272Z,69.90
2019-05-22T00:14:03.238Z,70.10
2019-05-22T00:15:03.529Z,70.40
2019-05-22T00:16:03.241Z,69.20
2019-05-22T00:17:03.205Z,72.30
2019-05-22T00:18:03.202Z,67.10
2019-05-22T00:19:03.192Z,65.20
2019-05-22T00:20:03.189Z,62.10
2019-05-22T00:21:03.330Z,56.00
2019-05-22T00:22:03.154Z,53.90
2019-05-22T00:23:03.141Z,52.10
2019-05-22T00:24:03.129Z,54.20
2019-05-22T00:25:03.119Z,54.40
2019-05-22T00:26:03.136Z,54.90
2019-05-22T00:27:03.098Z,54.60
2019-05-22T00:28:03.085Z,54.60
2019-05-22T00:29:03.083Z,52.00
2019-05-22T00:30:03.066Z,53.90
2019-05-22T00:31:03.095Z,52.50
2019-05-22T00:32:03.042Z,54.70
2019-05-22T00:33:03.033Z,54.50
2019-05-22T00:34:03.019Z,55.50
2019-05-22T00:35:03.016Z,54.20
2019-05-22T00:36:03.025Z,54.00
2019-05-22T00:37:02.988Z,53.10
2019-05-22T00:38:03.043Z,50.00
2019-05-22T00:39:02.964Z,50.80
2019-05-22T00:40:02.952Z,52.70
2019-05-22T00:41:02.972Z,53.00
2019-05-22T00:42:02.930Z,53.50
2019-05-22T00:43:06.948Z,54.80
2019-05-22T00:44:03.911Z,49.30
2019-05-22T00:45:02.895Z,55.70
2019-05-22T00:46:02.887Z,60.50
2019-05-22T00:47:02.922Z,61.20
2019-05-22T00:48:02.862Z,63.10
2019-05-22T00:49:02.853Z,66.30
2019-05-22T00:50:02.855Z,65.00
2019-05-22T00:51:02.829Z,59.60
2019-05-22T00:52:02.840Z,71.10
2019-05-22T00:53:02.809Z,68.90
2019-05-22T00:54:02.797Z,68.90
2019-05-22T00:55:02.783Z,69.80
2019-05-22T00:56:02.787Z,66.80
2019-05-22T00:57:02.788Z,74.30
2019-05-22T00:58:02.753Z,74.30
2019-05-22T00:59:02.740Z,69.20
2019-05-22T01:00:02.742Z,73.60
2019-05-22T01:01:02.718Z,69.80
2019-05-22T01:02:02.751Z,73.10
2019-05-22T01:03:02.793Z,72.00
2019-05-22T01:04:02.747Z,65.20
2019-05-22T01:05:02.674Z,72.30
2019-05-22T01:06:02.661Z,68.40
2019-05-22T01:07:02.686Z,69.90
2019-05-22T01:08:02.641Z,68.70
2019-05-22T01:09:02.664Z,63.80
2019-05-22T01:10:03.644Z,69.40
2019-05-22T01:11:02.607Z,63.50
2019-05-22T01:12:03.156Z,65.20
2019-05-22T01:13:02.584Z,66.60
2019-05-22T01:14:02.578Z,63.50
2019-05-22T01:15:03.202Z,65.00
2019-05-22T01:16:02.552Z,63.40
2019-05-22T01:17:02.566Z,64.50
2019-05-22T01:18:02.531Z,52.40
2019-05-22T01:19:02.518Z,52.80
2019-05-22T01:20:02.508Z,55.90
2019-05-22T01:21:02.521Z,54.10
2019-05-22T01:22:02.552Z,55.40
2019-05-22T01:23:02.486Z,57.00
2019-05-22T01:24:02.462Z,54.50
2019-05-22T01:25:02.451Z,55.90
2019-05-22T01:26:02.440Z,60.40
2019-05-22T01:27:02.438Z,58.00
2019-05-22T01:28:02.456Z,54.80
2019-05-22T01:29:02.409Z,52.10
2019-05-22T01:30:02.471Z,51.70
2019-05-22T01:31:02.387Z,51.10
2019-05-22T01:32:02.373Z,53.70
2019-05-22T01:33:02.387Z,50.90
2019-05-22T01:34:02.397Z,49.90
2019-05-22T01:35:02.342Z,49.60
2019-05-22T01:36:02.330Z,49.20
2019-05-22T01:37:02.317Z,47.70
2019-05-22T01:38:02.333Z,41.60
2019-05-22T01:39:02.325Z,46.40
2019-05-22T01:40:02.318Z,44.30
2019-05-22T01:41:02.274Z,47.70
2019-05-22T01:42:02.266Z,46.00
2019-05-22T01:43:02.278Z,44.70
2019-05-22T01:44:02.240Z,46.70
2019-05-22T01:45:06.465Z,48.60
2019-05-22T01:46:02.232Z,43.70
2019-05-22T01:47:02.210Z,43.30
2019-05-22T01:48:02.227Z,41.90
2019-05-22T01:49:02.190Z,43.80
2019-05-22T01:50:02.214Z,39.20
2019-05-22T01:51:02.176Z,44.40
2019-05-22T01:52:02.178Z,43.50
2019-05-22T01:53:02.216Z,45.50
2019-05-22T01:54:02.133Z,47.40
2019-05-22T01:55:02.124Z,48.40
2019-05-22T01:56:02.161Z,48.60
2019-05-22T01:57:02.097Z,49.90
2019-05-22T01:58:02.118Z,51.00
2019-05-22T01:59:02.076Z,56.20
2019-05-22T02:00:02.065Z,52.70
2019-05-22T02:01:02.107Z,52.10
2019-05-22T02:02:02.056Z,50.50
2019-05-22T02:03:02.055Z,46.40
2019-05-22T02:04:02.034Z,48.40
2019-05-22T02:05:02.009Z,49.00
2019-05-22T02:06:02.000Z,50.60
2019-05-22T02:07:01.992Z,51.90
2019-05-22T02:08:02.001Z,49.90
2019-05-22T02:09:01.966Z,52.00
2019-05-22T02:10:02.509Z,52.50
2019-05-22T02:11:01.958Z,49.90
2019-05-22T02:12:01.935Z,51.50
2019-05-22T02:13:01.961Z,50.80
2019-05-22T02:14:01.912Z,52.00
2019-05-22T02:15:01.922Z,52.10
2019-05-22T02:16:01.943Z,54.60
2019-05-22T02:17:01.891Z,49.80
2019-05-22T02:18:01.866Z,53.30
2019-05-22T02:19:01.914Z,51.60
2019-05-22T02:20:01.864Z,53.80
2019-05-22T02:21:01.838Z,56.00
2019-05-22T02:22:01.955Z,54.70
2019-05-22T02:23:01.820Z,54.60
2019-05-22T02:24:01.823Z,53.30
2019-05-22T02:25:01.858Z,53.40
2019-05-22T02:26:01.778Z,51.50
2019-05-22T02:27:02.207Z,56.80
2019-05-22T02:28:01.759Z,53.50
2019-05-22T02:29:01.826Z,53.70
2019-05-22T02:30:01.739Z,55.50
2019-05-22T02:31:01.722Z,48.20
2019-05-22T02:32:01.726Z,50.40
2019-05-22T02:33:01.712Z,50.00
2019-05-22T02:34:01.717Z,49.70
2019-05-22T02:35:01.841Z,51.00
2019-05-22T02:36:01.671Z,47.40
2019-05-22T02:37:01.660Z,49.80
2019-05-22T02:38:01.651Z,50.70
2019-05-22T02:39:01.663Z,45.90
2019-05-22T02:40:01.646Z,45.50
2019-05-22T02:41:01.617Z,40.10
2019-05-22T02:42:01.612Z,42.90
2019-05-22T02:43:01.599Z,44.70
2019-05-22T02:44:01.624Z,39.30
2019-05-22T02:45:01.574Z,45.60
2019-05-22T02:46:01.569Z,45.90
2019-05-22T02:47:17.941Z,47.50
2019-05-22T02:48:02.539Z,45.00
2019-05-22T02:49:01.562Z,41.50
2019-05-22T02:50:01.652Z,44.10
2019-05-22T02:51:01.504Z,42.30
2019-05-22T02:52:01.511Z,45.30
2019-05-22T02:53:01.483Z,44.50
2019-05-22T02:54:01.477Z,47.60
2019-05-22T02:55:01.487Z,44.80
2019-05-22T02:56:01.448Z,44.30
2019-05-22T02:57:01.439Z,44.80
2019-05-22T02:58:01.433Z,40.60
2019-05-22T02:59:01.425Z,44.80
2019-05-22T03:00:01.590Z,43.50
2019-05-22T03:01:01.416Z,43.70
2019-05-22T03:02:01.384Z,46.50
2019-05-22T03:03:01.374Z,47.10
2019-05-22T03:04:01.365Z,45.70
2019-05-22T03:05:01.373Z,47.20
2019-05-22T03:06:01.355Z,47.90
2019-05-22T03:07:01.330Z,44.20
2019-05-22T03:08:01.318Z,52.80
2019-05-22T03:09:01.342Z,53.60
2019-05-22T03:10:01.336Z,51.10
2019-05-22T03:11:01.285Z,46.90
2019-05-22T03:12:01.287Z,51.30
2019-05-22T03:13:01.264Z,50.30
2019-05-22T03:14:01.255Z,52.20
2019-05-22T03:15:01.273Z,51.50
2019-05-22T03:16:01.232Z,52.40
2019-05-22T03:17:01.219Z,52.40
2019-05-22T03:18:01.218Z,49.20
2019-05-22T03:19:08.851Z,47.00
2019-05-22T03:20:02.211Z,47.10
2019-05-22T03:21:01.179Z,43.50
2019-05-22T03:22:01.166Z,39.20
2019-05-22T03:23:01.170Z,41.70
2019-05-22T03:24:01.158Z,43.50
2019-05-22T03:25:01.157Z,43.10
2019-05-22T03:26:01.124Z,43.50
2019-05-22T03:27:01.122Z,43.80
2019-05-22T03:28:01.105Z,41.60
2019-05-22T03:29:01.090Z,38.90
2019-05-22T03:30:01.122Z,42.80
2019-05-22T03:31:01.072Z,41.50
2019-05-22T03:32:01.058Z,42.30
2019-05-22T03:33:01.103Z,40.50
2019-05-22T03:34:01.042Z,41.10
2019-05-22T03:35:01.049Z,38.70
2019-05-22T03:36:01.028Z,41.00
2019-05-22T03:37:01.005Z,38.80
2019-05-22T03:38:01.006Z,39.50
2019-05-22T03:39:00.984Z,38.00
2019-05-22T03:40:00.999Z,41.80
2019-05-22T03:41:00.976Z,40.20
2019-05-22T03:42:00.956Z,40.40
2019-05-22T03:43:00.941Z,42.00
2019-05-22T03:44:00.932Z,42.20
2019-05-22T03:45:00.915Z,41.20
2019-05-22T03:46:00.946Z,38.40
2019-05-22T03:47:00.896Z,35.70
2019-05-22T03:48:00.898Z,39.50
2019-05-22T03:49:00.891Z,38.60
2019-05-22T03:50:00.871Z,41.40
2019-05-22T03:51:00.877Z,40.40
2019-05-22T03:52:00.841Z,41.80
2019-05-22T03:53:00.829Z,40.60
2019-05-22T03:54:00.823Z,43.50
2019-05-22T03:55:00.809Z,41.30
2019-05-22T03:56:00.841Z,41.00
2019-05-22T03:57:00.788Z,40.10
2019-05-22T03:58:00.779Z,39.90
2019-05-22T03:59:00.763Z,43.90
2019-05-22T04:00:00.755Z,38.30
2019-05-22T04:01:00.772Z,41.10
2019-05-22T04:02:00.745Z,41.90
2019-05-22T04:03:00.738Z,40.90
2019-05-22T04:04:00.717Z,42.60
2019-05-22T04:05:00.714Z,41.30
2019-05-22T04:06:00.710Z,43.60
2019-05-22T04:07:00.676Z,47.70
2019-05-22T04:08:00.689Z,48.00
2019-05-22T04:09:00.657Z,46.90
2019-05-22T04:10:00.648Z,48.60
2019-05-22T04:11:00.658Z,49.50
2019-05-22T04:12:00.622Z,45.20
2019-05-22T04:13:00.612Z,45.70
2019-05-22T04:14:00.616Z,48.60
2019-05-22T04:15:00.587Z,51.20
2019-05-22T04:16:00.614Z,45.30
2019-05-22T04:17:00.573Z,46.30
2019-05-22T04:18:00.560Z,46.60
2019-05-22T04:19:00.547Z,45.90
2019-05-22T04:20:00.552Z,47.60
2019-05-22T04:21:00.547Z,48.00
2019-05-22T04:22:00.513Z,44.20
2019-05-22T04:23:00.527Z,45.10
2019-05-22T04:24:00.492Z,45.20
2019-05-22T04:25:00.480Z,46.50
2019-05-22T04:26:00.551Z,49.50
2019-05-22T04:27:00.486Z,45.80
2019-05-22T04:28:00.453Z,48.20
2019-05-22T04:29:00.440Z,48.90
2019-05-22T04:30:00.429Z,50.80
2019-05-22T04:31:00.418Z,51.30
2019-05-22T04:32:00.450Z,52.20
2019-05-22T04:33:00.397Z,53.80
2019-05-22T04:34:00.383Z,51.20
2019-05-22T04:35:00.381Z,50.70
2019-05-22T04:36:00.364Z,50.60
2019-05-22T04:37:00.376Z,51.70
2019-05-22T04:38:00.349Z,52.60
2019-05-22T04:39:00.327Z,55.10
2019-05-22T04:40:00.315Z,54.80
2019-05-22T04:41:00.310Z,57.10
2019-05-22T04:42:00.322Z,58.80
2019-05-22T04:43:00.293Z,60.80
2019-05-22T04:44:00.309Z,57.30
2019-05-22T04:45:00.301Z,55.90
2019-05-22T04:46:00.270Z,65.90
2019-05-22T04:47:00.267Z,62.80
2019-05-22T04:48:00.230Z,63.30
2019-05-22T04:49:00.225Z,59.30
2019-05-22T04:50:07.473Z,61.30
2019-05-22T04:51:01.194Z,57.40
2019-05-22T04:52:00.208Z,63.90
2019-05-22T04:53:00.178Z,61.30
2019-05-22T04:54:00.165Z,63.50
2019-05-22T04:55:00.154Z,56.00
2019-05-22T04:56:00.150Z,56.20
2019-05-22T04:57:00.157Z,62.90
2019-05-22T04:58:00.124Z,59.90
2019-05-22T04:59:00.111Z,60.30
2019-05-22T05:00:00.112Z,60.40
2019-05-22T05:01:00.089Z,59.90
2019-05-22T05:02:00.111Z,56.90
2019-05-22T05:03:00.065Z,56.50
2019-05-22T05:04:00.059Z,56.60
2019-05-22T05:05:00.087Z,59.10
2019-05-22T05:06:00.035Z,58.30
2019-05-22T05:07:00.222Z,54.10
2019-05-22T05:08:00.039Z,50.30
2019-05-22T05:09:00.000Z,48.40
2019-05-22T05:09:59.992Z,46.60
2019-05-22T05:10:59.977Z,50.60
2019-05-22T05:11:59.972Z,48.10
2019-05-22T05:12:59.979Z,48.30
2019-05-22T05:13:59.970Z,47.40
2019-05-22T05:14:59.947Z,49.60
2019-05-22T05:15:59.922Z,49.50
2019-05-22T05:16:59.914Z,48.40
2019-05-22T05:17:59.924Z,46.10
2019-05-22T05:18:59.892Z,47.90
2019-05-22T05:19:59.878Z,46.30
2019-05-22T05:20:59.890Z,43.90
2019-05-22T05:21:59.864Z,45.90
2019-05-22T05:22:59.869Z,40.80
2019-05-22T05:23:59.838Z,41.80
2019-05-22T05:24:59.827Z,43.40
2019-05-22T05:25:59.816Z,43.10
2019-05-22T05:26:59.806Z,41.80
2019-05-22T05:27:59.850Z,45.10
2019-05-22T05:28:59.781Z,42.60
2019-05-22T05:29:59.776Z,43.40
2019-05-22T05:30:59.758Z,42.10
2019-05-22T05:31:59.751Z,42.20
2019-05-22T05:32:59.760Z,37.90
2019-05-22T05:33:59.745Z,39.20
2019-05-22T05:34:59.726Z,40.20
2019-05-22T05:35:59.767Z,42.30
2019-05-22T05:36:59.701Z,43.40
2019-05-22T05:37:59.719Z,42.60
2019-05-22T05:38:59.675Z,42.20
2019-05-22T05:39:59.702Z,45.00
2019-05-22T05:40:59.664Z,43.30
2019-05-22T05:41:59.639Z,44.30
2019-05-22T05:42:59.655Z,43.70
2019-05-22T05:43:59.619Z,44.10
2019-05-22T05:44:59.609Z,42.70
2019-05-22T05:45:59.598Z,42.30
2019-05-22T05:46:59.601Z,43.90
2019-05-22T05:47:59.603Z,41.70
2019-05-22T05:48:59.565Z,44.80
2019-05-22T05:49:59.551Z,46.10
2019-05-22T05:50:59.552Z,43.40
2019-05-22T05:51:59.537Z,43.00
2019-05-22T05:52:59.544Z,44.20
2019-05-22T05:53:59.541Z,45.60
2019-05-22T05:54:59.498Z,44.80
2019-05-22T05:55:59.487Z,45.30
2019-05-22T05:56:59.476Z,46.50
2019-05-22T05:57:59.487Z,45.50
2019-05-22T05:58:59.467Z,44.50
2019-05-22T05:59:59.442Z,41.00
2019-05-22T06:00:59.443Z,46.60
2019-05-22T06:01:59.433Z,45.80
2019-05-22T06:02:59.455Z,48.40
2019-05-22T06:03:59.401Z,46.00
2019-05-22T06:04:59.397Z,46.40
2019-05-22T06:05:59.379Z,44.80
2019-05-22T06:07:00.730Z,47.60
2019-05-22T06:07:59.354Z,48.60
2019-05-22T06:08:59.408Z,47.10
2019-05-22T06:09:59.331Z,45.90
2019-05-22T06:10:59.354Z,46.10
2019-05-22T06:11:59.309Z,48.70
2019-05-22T06:12:59.297Z,48.10
2019-05-22T06:13:59.312Z,48.60
2019-05-22T06:14:59.291Z,48.60
2019-05-22T06:15:59.266Z,49.10
2019-05-22T06:16:59.277Z,46.80
2019-05-22T06:17:59.243Z,42.90
2019-05-22T06:18:59.259Z,45.30
2019-05-22T06:19:59.222Z,46.70
2019-05-22T06:21:03.743Z,46.40
2019-05-22T06:22:00.205Z,44.20
2019-05-22T06:22:59.210Z,46.70
2019-05-22T06:23:59.200Z,42.60
2019-05-22T06:24:59.383Z,45.60
2019-05-22T06:25:59.158Z,44.90
2019-05-22T06:26:59.147Z,46.10
2019-05-22T06:27:59.139Z,46.00
2019-05-22T06:28:59.155Z,46.00
2019-05-22T06:29:59.122Z,45.10
2019-05-22T06:30:59.100Z,44.50
2019-05-22T06:31:59.090Z,44.30
2019-05-22T06:32:59.080Z,46.10
2019-05-22T06:33:59.098Z,44.30
2019-05-22T06:34:59.816Z,43.90
2019-05-22T06:35:59.048Z,44.80
2019-05-22T06:36:59.242Z,44.60
2019-05-22T06:37:59.025Z,43.60
2019-05-22T06:38:59.038Z,44.90
2019-05-22T06:39:59.005Z,44.80
2019-05-22T06:40:59.119Z,42.30
2019-05-22T06:41:58.981Z,46.40
2019-05-22T06:42:58.971Z,44.30
2019-05-22T06:43:59.052Z,44.10
2019-05-22T06:44:58.949Z,43.10
2019-05-22T06:45:58.938Z,43.50
2019-05-22T06:46:58.945Z,44.60
2019-05-22T06:47:58.918Z,43.20
2019-05-22T06:48:58.956Z,43.40
2019-05-22T06:49:58.899Z,44.00
2019-05-22T06:50:58.883Z,44.60
2019-05-22T06:51:58.873Z,44.40
2019-05-22T06:53:09.295Z,47.10
2019-05-22T06:53:59.900Z,44.00
2019-05-22T06:54:58.848Z,45.60
2019-05-22T06:55:58.827Z,43.40
2019-05-22T06:56:58.820Z,44.90
2019-05-22T06:57:58.809Z,45.60
2019-05-22T06:58:58.804Z,46.20
2019-05-22T07:00:12.514Z,41.50
2019-05-22T07:00:59.773Z,45.10
2019-05-22T07:02:01.431Z,43.60
2019-05-22T07:02:58.756Z,45.00
2019-05-22T07:03:58.759Z,38.70
2019-05-22T07:04:58.808Z,41.80
2019-05-22T07:05:58.719Z,40.90
2019-05-22T07:06:58.738Z,41.90
2019-05-22T07:07:58.699Z,41.00
2019-05-22T07:08:58.697Z,40.00
2019-05-22T07:09:58.709Z,41.50
2019-05-22T07:10:58.672Z,41.30
2019-05-22T07:11:58.685Z,41.90
2019-05-22T07:12:58.646Z,39.70
2019-05-22T07:13:58.638Z,41.40
2019-05-22T07:14:58.640Z,41.80
2019-05-22T07:15:58.614Z,39.90
2019-05-22T07:16:58.596Z,41.00
2019-05-22T07:17:58.588Z,42.00
2019-05-22T07:18:58.599Z,43.00
2019-05-22T07:19:58.601Z,41.30
2019-05-22T07:20:58.563Z,40.40
2019-05-22T07:21:58.560Z,39.70
2019-05-22T07:22:58.529Z,40.10
2019-05-22T07:23:58.547Z,39.20
2019-05-22T07:24:58.564Z,38.90
2019-05-22T07:25:58.503Z,37.50
2019-05-22T07:26:58.494Z,37.80
2019-05-22T07:27:58.491Z,39.50
2019-05-22T07:29:00.877Z,38.80
2019-05-22T07:29:59.478Z,38.70
2019-05-22T07:30:58.443Z,37.80
2019-05-22T07:32:01.959Z,38.40
2019-05-22T07:32:58.424Z,35.80
2019-05-22T07:33:58.410Z,40.00
2019-05-22T07:34:58.437Z,36.60
2019-05-22T07:36:09.915Z,37.10
2019-05-22T07:36:59.372Z,35.90
2019-05-22T07:37:58.369Z,32.70
2019-05-22T07:38:58.355Z,33.90
2019-05-22T07:39:58.376Z,35.20
2019-05-22T07:40:58.456Z,36.50
2019-05-22T07:41:58.326Z,38.10
2019-05-22T07:42:58.308Z,36.90
2019-05-22T07:43:58.363Z,36.30
2019-05-22T07:44:58.311Z,36.40
2019-05-22T07:45:58.300Z,36.80
2019-05-22T07:46:58.271Z,38.20
2019-05-22T07:47:58.251Z,36.90
2019-05-22T07:48:58.297Z,37.40
2019-05-22T07:49:58.234Z,36.00
2019-05-22T07:50:58.263Z,35.70
2019-05-22T07:52:01.756Z,34.20
2019-05-22T07:52:58.210Z,35.70
2019-05-22T07:53:58.188Z,33.20
2019-05-22T07:54:58.177Z,32.40
2019-05-22T07:55:58.190Z,34.20
2019-05-22T07:56:58.165Z,35.20
2019-05-22T07:57:58.154Z,34.50
2019-05-22T07:58:59.069Z,34.70
2019-05-22T07:59:58.119Z,32.80
2019-05-22T08:00:58.149Z,32.80
2019-05-22T08:01:58.775Z,33.50
2019-05-22T08:02:58.098Z,33.40
2019-05-22T08:03:58.778Z,34.10
2019-05-22T08:04:58.075Z,32.70
2019-05-22T08:05:58.444Z,32.60
2019-05-22T08:06:58.162Z,33.30
2019-05-22T08:07:58.052Z,31.70
2019-05-22T08:08:58.023Z,31.10
2019-05-22T08:09:58.018Z,30.80
2019-05-22T08:10:58.038Z,31.30
2019-05-22T08:11:58.034Z,31.40
2019-05-22T08:12:58.099Z,31.20
2019-05-22T08:13:57.968Z,31.90
2019-05-22T08:14:57.955Z,30.30
2019-05-22T08:15:58.026Z,30.30
2019-05-22T08:16:57.974Z,28.80
2019-05-22T08:17:57.936Z,30.20
2019-05-22T08:18:57.922Z,30.30
2019-05-22T08:19:57.905Z,31.00
2019-05-22T08:20:57.960Z,30.00
2019-05-22T08:22:06.688Z,30.00
2019-05-22T08:22:58.887Z,29.30
2019-05-22T08:23:57.908Z,31.10
2019-05-22T08:24:57.866Z,30.20
2019-05-22T08:25:58.058Z,29.70
2019-05-22T08:26:57.907Z,29.10
2019-05-22T08:27:57.873Z,30.70
2019-05-22T08:28:57.813Z,30.40
2019-05-22T08:29:57.797Z,29.80
2019-05-22T08:30:57.816Z,30.70
2019-05-22T08:31:57.798Z,30.80
2019-05-22T08:32:57.788Z,31.40
2019-05-22T08:33:57.765Z,30.50
2019-05-22T08:34:57.786Z,30.20
2019-05-22T08:35:57.726Z,29.90
2019-05-22T08:36:57.738Z,30.00
2019-05-22T08:37:57.707Z,30.60
2019-05-22T08:38:57.696Z,28.80
2019-05-22T08:39:57.684Z,29.50
2019-05-22T08:40:57.727Z,29.30
2019-05-22T08:41:57.690Z,28.80
2019-05-22T08:42:57.666Z,29.20
2019-05-22T08:44:15.104Z,29.00
2019-05-22T08:44:58.627Z,28.80
2019-05-22T08:45:57.624Z,29.00
2019-05-22T08:46:57.630Z,29.40
2019-05-22T08:47:57.603Z,28.90
2019-05-22T08:48:57.618Z,27.00
2019-05-22T08:49:57.596Z,28.60
2019-05-22T08:50:57.600Z,29.50
2019-05-22T08:51:57.589Z,29.10
2019-05-22T08:52:57.549Z,27.30
2019-05-22T08:53:57.544Z,28.00
2019-05-22T08:54:57.520Z,26.50
2019-05-22T08:55:57.514Z,28.20
2019-05-22T08:56:57.537Z,27.60
2019-05-22T08:57:57.496Z,27.90
2019-05-22T08:58:57.483Z,27.10
2019-05-22T08:59:57.465Z,28.20
2019-05-22T09:00:57.457Z,28.10
2019-05-22T09:01:57.472Z,27.20
2019-05-22T09:02:57.554Z,27.10
2019-05-22T09:03:57.466Z,27.50
2019-05-22T09:04:57.418Z,27.90
2019-05-22T09:05:57.728Z,27.60
2019-05-22T09:06:57.411Z,29.00
2019-05-22T09:07:57.375Z,25.90
2019-05-22T09:08:57.365Z,28.30
2019-05-22T09:09:57.351Z,26.60
2019-05-22T09:10:57.357Z,25.80
2019-05-22T09:11:57.392Z,26.10
2019-05-22T09:12:57.328Z,26.70
2019-05-22T09:13:57.312Z,26.40
2019-05-22T09:14:57.308Z,26.10
2019-05-22T09:16:01.533Z,25.70
2019-05-22T09:16:57.300Z,25.60
2019-05-22T09:17:57.266Z,26.00
2019-05-22T09:18:57.279Z,27.70
2019-05-22T09:19:57.256Z,26.40
2019-05-22T09:20:57.234Z,26.80
2019-05-22T09:21:57.270Z,27.10
2019-05-22T09:22:57.231Z,27.10
2019-05-22T09:23:57.206Z,27.90
2019-05-22T09:24:57.214Z,28.70
2019-05-22T09:25:57.195Z,30.50
2019-05-22T09:26:57.174Z,29.10
2019-05-22T09:27:57.198Z,29.80
2019-05-22T09:28:57.151Z,29.20
2019-05-22T09:29:57.148Z,30.30
2019-05-22T09:30:57.124Z,29.70
2019-05-22T09:31:57.159Z,28.50
2019-05-22T09:32:57.123Z,28.10
2019-05-22T09:33:57.093Z,27.40
2019-05-22T09:34:57.078Z,27.90
2019-05-22T09:35:57.082Z,26.80
2019-05-22T09:36:57.060Z,26.60
2019-05-22T09:37:57.072Z,27.00
2019-05-22T09:38:57.036Z,27.40
2019-05-22T09:39:57.028Z,28.20
2019-05-22T09:40:57.013Z,32.50
2019-05-22T09:41:57.011Z,35.20
2019-05-22T09:42:57.047Z,35.10
2019-05-22T09:43:56.982Z,33.70
2019-05-22T09:44:56.970Z,31.80
2019-05-22T09:45:56.965Z,31.00
2019-05-22T09:46:56.947Z,29.50
2019-05-22T09:47:56.971Z,27.90
2019-05-22T09:48:56.931Z,26.30
2019-05-22T09:49:56.920Z,23.10
2019-05-22T09:50:56.923Z,24.50
2019-05-22T09:51:56.924Z,23.70
2019-05-22T09:52:58.285Z,22.40
2019-05-22T09:53:56.875Z,23.10
2019-05-22T09:54:56.899Z,21.40
2019-05-22T09:55:56.871Z,21.70
2019-05-22T09:56:56.843Z,23.60
2019-05-22T09:57:56.856Z,22.20
2019-05-22T09:58:56.833Z,23.00
2019-05-22T09:59:56.818Z,22.10
2019-05-22T10:00:56.802Z,23.10
2019-05-22T10:01:56.787Z,23.10
2019-05-22T10:02:56.806Z,23.00
2019-05-22T10:03:56.763Z,22.80
2019-05-22T10:04:56.754Z,24.50
2019-05-22T10:05:56.882Z,22.90
2019-05-22T10:06:56.753Z,23.00
2019-05-22T10:08:00.952Z,23.10
2019-05-22T10:08:56.717Z,22.90
2019-05-22T10:09:56.725Z,23.60
2019-05-22T10:10:56.691Z,23.30
2019-05-22T10:11:56.677Z,22.70
2019-05-22T10:12:56.718Z,24.30
2019-05-22T10:13:56.658Z,23.00
2019-05-22T10:14:56.996Z,22.50
2019-05-22T10:15:56.669Z,23.70
2019-05-22T10:16:56.650Z,22.10
2019-05-22T10:17:56.753Z,22.70
2019-05-22T10:18:56.624Z,22.30
2019-05-22T10:19:56.660Z,23.10
2019-05-22T10:20:56.605Z,22.10
2019-05-22T10:21:56.570Z,21.80
2019-05-22T10:23:05.980Z,22.60
2019-05-22T10:23:57.572Z,22.10
2019-05-22T10:25:14.060Z,22.20
2019-05-22T10:25:57.525Z,22.20
2019-05-22T10:26:56.521Z,23.60
2019-05-22T10:27:59.236Z,23.10
2019-05-22T10:28:56.543Z,23.00
2019-05-22T10:29:56.482Z,22.50
2019-05-22T10:30:57.467Z,22.60
2019-05-22T10:31:56.463Z,22.90
2019-05-22T10:32:56.458Z,21.90
2019-05-22T10:33:56.469Z,23.40
2019-05-22T10:34:57.836Z,21.30
2019-05-22T10:35:56.420Z,20.80
2019-05-22T10:36:56.404Z,21.90
2019-05-22T10:37:56.393Z,21.90
2019-05-22T10:38:56.408Z,22.70
2019-05-22T10:39:56.375Z,22.40
2019-05-22T10:40:59.246Z,23.60
2019-05-22T10:41:56.359Z,22.90
2019-05-22T10:42:56.350Z,23.50
2019-05-22T10:43:56.351Z,23.90
2019-05-22T10:44:56.321Z,24.20
2019-05-22T10:45:56.306Z,23.40
2019-05-22T10:46:56.297Z,22.70
2019-05-22T10:47:56.292Z,23.20
2019-05-22T10:48:56.301Z,22.90
2019-05-22T10:49:56.264Z,22.30
2019-05-22T10:50:56.251Z,22.30
2019-05-22T10:51:56.248Z,20.80
2019-05-22T10:52:56.230Z,20.70
2019-05-22T10:53:56.256Z,22.30
2019-05-22T10:54:56.232Z,21.40
2019-05-22T10:55:56.201Z,22.80
2019-05-22T10:56:56.186Z,23.20
2019-05-22T10:57:56.177Z,24.30
2019-05-22T10:58:56.194Z,22.20
2019-05-22T10:59:56.154Z,22.30
2019-05-22T11:00:56.142Z,23.70
2019-05-22T11:01:56.138Z,21.90
2019-05-22T11:02:56.141Z,23.40
2019-05-22T11:03:56.242Z,23.30
2019-05-22T11:04:56.103Z,21.70
2019-05-22T11:06:06.586Z,22.80
2019-05-22T11:06:57.130Z,23.20
2019-05-22T11:07:56.070Z,22.90
2019-05-22T11:08:56.090Z,23.20
2019-05-22T11:09:56.047Z,24.00
2019-05-22T11:10:56.044Z,23.50
2019-05-22T11:11:56.042Z,23.50
2019-05-22T11:12:56.018Z,23.40
2019-05-22T11:14:01.180Z,22.90
2019-05-22T11:14:56.994Z,24.10
2019-05-22T11:15:55.992Z,22.90
2019-05-22T11:16:55.972Z,22.90
2019-05-22T11:17:55.963Z,24.50
2019-05-22T11:18:56.005Z,22.70
2019-05-22T11:19:55.962Z,22.70
2019-05-22T11:20:55.932Z,21.10
2019-05-22T11:21:57.142Z,21.70
2019-05-22T11:22:55.911Z,22.70
2019-05-22T11:23:55.901Z,23.30
2019-05-22T11:24:55.912Z,22.60
2019-05-22T11:25:55.879Z,22.10
2019-05-22T11:26:55.868Z,23.10
2019-05-22T11:27:55.943Z,22.60
2019-05-22T11:28:56.163Z,23.30
2019-05-22T11:29:55.865Z,22.10
2019-05-22T11:30:55.833Z,23.40
2019-05-22T11:31:55.813Z,22.70
2019-05-22T11:32:55.806Z,22.70
2019-05-22T11:33:55.795Z,20.90
2019-05-22T11:34:55.827Z,21.50
2019-05-22T11:35:55.773Z,21.80
2019-05-22T11:36:55.859Z,20.40
2019-05-22T11:37:55.757Z,22.50
2019-05-22T11:38:55.741Z,21.60
2019-05-22T11:39:55.760Z,21.30
2019-05-22T11:40:55.720Z,22.40
2019-05-22T11:41:55.707Z,22.70
2019-05-22T11:42:55.696Z,21.70
2019-05-22T11:43:55.953Z,21.40
2019-05-22T11:44:55.701Z,21.00
2019-05-22T11:45:55.783Z,21.90
2019-05-22T11:46:55.658Z,20.90
2019-05-22T11:47:55.669Z,22.60
2019-05-22T11:48:55.632Z,20.50
2019-05-22T11:49:55.886Z,20.50
2019-05-22T11:50:55.611Z,21.50
2019-05-22T11:51:55.639Z,21.20
2019-05-22T11:52:55.589Z,20.00
2019-05-22T11:54:08.803Z,21.50
2019-05-22T11:54:56.603Z,21.40
2019-05-22T11:55:55.588Z,21.10
2019-05-22T11:56:55.644Z,21.50
2019-05-22T11:57:55.535Z,21.50
2019-05-22T11:58:55.525Z,20.70
2019-05-22T11:59:55.595Z,20.40
2019-05-22T12:00:55.508Z,21.00
2019-05-22T12:01:55.493Z,21.00
2019-05-22T12:02:55.483Z,21.70
2019-05-22T12:03:55.481Z,21.00
2019-05-22T12:04:55.601Z,20.40
2019-05-22T12:05:55.451Z,21.40
2019-05-22T12:06:55.436Z,21.20
2019-05-22T12:07:55.426Z,19.80
2019-05-22T12:08:55.419Z,20.50
2019-05-22T12:09:55.462Z,20.70
2019-05-22T12:10:55.401Z,21.20
2019-05-22T12:11:55.384Z,20.90
2019-05-22T12:12:55.376Z,19.00
2019-05-22T12:13:55.361Z,18.10
2019-05-22T12:14:55.387Z,18.00
2019-05-22T12:15:55.346Z,18.60
2019-05-22T12:16:55.341Z,18.60
2019-05-22T12:17:55.319Z,19.70
2019-05-22T12:18:58.479Z,19.00
2019-05-22T12:19:55.300Z,19.10
2019-05-22T12:20:55.332Z,20.40
2019-05-22T12:21:55.269Z,20.50
2019-05-22T12:22:55.266Z,19.30
2019-05-22T12:23:55.251Z,19.90
2019-05-22T12:24:55.236Z,20.10
2019-05-22T12:25:55.255Z,20.80
2019-05-22T12:26:55.222Z,20.30
2019-05-22T12:27:55.208Z,19.70
2019-05-22T12:28:55.195Z,19.80
2019-05-22T12:29:55.194Z,18.30
2019-05-22T12:30:55.223Z,19.60
2019-05-22T12:31:55.167Z,19.00
2019-05-22T12:32:55.174Z,19.50
2019-05-22T12:33:55.144Z,18.70
2019-05-22T12:34:55.161Z,18.50
2019-05-22T12:35:55.143Z,20.20
2019-05-22T12:36:55.111Z,21.00
2019-05-22T12:37:55.203Z,20.40
2019-05-22T12:38:55.091Z,21.40
2019-05-22T12:39:55.081Z,21.70
2019-05-22T12:40:55.093Z,21.70
2019-05-22T12:41:55.056Z,20.60
2019-05-22T12:42:55.048Z,18.40
2019-05-22T12:43:55.037Z,19.00
2019-05-22T12:44:55.109Z,20.10
2019-05-22T12:45:55.040Z,19.50
2019-05-22T12:46:55.017Z,19.20
2019-05-22T12:47:55.003Z,18.90
2019-05-22T12:48:55.001Z,18.00
2019-05-22T12:49:54.970Z,18.20
2019-05-22T12:50:54.984Z,18.10
2019-05-22T12:51:54.999Z,18.20